Time;durP1;ratioP1;P1;durP2;ratioP2;P2;SDS_P1;SDS_P2;PMS_P1;PMS_P2;Temp;Humidity;BMP_temperature;BMP_pressure;BME280_temperature;BME280_humidity;BME280_pressure;Samples;Min_cycle;Max_cycle;Signal;HPM_P1;HPM_P2
2023/06/11 00:00:47;;;;;;;7.72;6.70;;;;;;;24.80;48.85;99737.78;4922522;28;20058;-87
2023/06/11 00:03:13;;;;;;;7.85;6.65;;;;;;;24.74;49.08;99734.13;4910835;28;20441;-87
2023/06/11 00:05:41;;;;;;;8.85;6.72;;;;;;;24.75;49.02;99745.81;4937142;28;20049;-87
2023/06/11 00:08:09;;;;;;;7.30;6.65;;;;;;;24.78;48.42;99740.75;4924047;28;20383;-87
2023/06/11 00:10:36;;;;;;;7.72;6.68;;;;;;;24.73;48.37;99748.78;4929845;28;20465;-87
2023/06/11 00:13:03;;;;;;;6.80;6.20;;;;;;;24.79;48.43;99755.16;4925495;28;20082;-87
2023/06/11 00:15:30;;;;;;;6.85;6.25;;;;;;;24.76;48.96;99745.59;4916578;28;20046;-87
2023/06/11 00:17:57;;;;;;;7.45;6.68;;;;;;;24.76;48.78;99748.31;4945745;28;20078;-86
2023/06/11 00:20:24;;;;;;;9.25;6.57;;;;;;;24.75;48.82;99745.81;4906998;28;20051;-87
2023/06/11 00:22:50;;;;;;;7.75;6.30;;;;;;;24.74;48.85;99744.16;4931423;28;20877;-87
2023/06/11 00:25:17;;;;;;;7.32;6.03;;;;;;;24.73;48.82;99745.19;4937339;28;20468;-87
2023/06/11 00:27:44;;;;;;;7.15;6.45;;;;;;;24.71;49.03;99742.72;4925916;28;20565;-86
2023/06/11 00:30:12;;;;;;;10.90;6.68;;;;;;;24.68;49.03;99745.91;4939867;28;20050;-87
2023/06/11 00:32:39;;;;;;;8.82;6.68;;;;;;;24.67;49.10;99742.34;4925605;28;20066;-87
2023/06/11 00:35:08;;;;;;;8.02;7.22;;;;;;;24.65;48.65;99749.06;4904800;28;20047;-86
2023/06/11 00:37:37;;;;;;;8.23;7.40;;;;;;;24.66;48.61;99748.84;4939404;28;20078;-87
2023/06/11 00:40:06;;;;;;;7.88;6.53;;;;;;;24.62;49.09;99749.53;4948610;28;20109;-86
2023/06/11 00:42:33;;;;;;;8.63;7.13;;;;;;;24.60;48.89;99740.78;4933140;28;20047;-87
2023/06/11 00:45:03;;;;;;;9.00;7.22;;;;;;;24.58;48.54;99741.03;4945461;28;20458;-86
2023/06/11 00:47:32;;;;;;;10.52;7.47;;;;;;;24.59;48.69;99753.53;4930527;28;20418;-86
2023/06/11 00:50:00;;;;;;;9.02;6.68;;;;;;;24.56;49.05;99756.72;4950757;28;20061;-87
2023/06/11 00:52:27;;;;;;;11.73;6.80;;;;;;;24.52;49.04;99757.41;4949151;28;20047;-86
2023/06/11 00:54:54;;;;;;;8.65;7.55;;;;;;;24.53;49.04;99754.47;4954929;28;20126;-86
2023/06/11 00:57:25;;;;;;;8.27;7.18;;;;;;;24.48;49.30;99763.28;4958920;28;20074;-86
2023/06/11 00:59:53;;;;;;;9.80;7.68;;;;;;;24.46;48.98;99765.41;4968624;28;20042;-86
2023/06/11 01:02:33;;;;;;;9.45;7.28;;;;;;;24.33;49.75;99762.00;4939057;28;20046;-87
2023/06/11 01:05:01;;;;;;;10.25;7.40;;;;;;;24.43;48.65;99759.56;4925588;28;20058;-87
2023/06/11 01:07:34;;;;;;;8.48;6.90;;;;;;;24.36;49.10;99765.06;4943581;28;20514;-87
2023/06/11 01:10:03;;;;;;;8.00;7.07;;;;;;;24.42;48.86;99766.03;4961219;28;20054;-87
2023/06/11 01:12:34;;;;;;;9.07;7.60;;;;;;;24.44;48.92;99766.66;4955772;28;20127;-86
2023/06/11 01:15:01;;;;;;;9.98;7.45;;;;;;;24.38;49.11;99759.44;4953930;28;20050;-87
2023/06/11 01:18:00;;;;;;;7.75;7.00;;;;;;;24.22;49.66;99763.56;4959393;28;20055;-86
2023/06/11 01:20:37;;;;;;;9.52;7.43;;;;;;;24.38;49.17;99760.25;4954361;28;20125;-87
2023/06/11 01:23:16;;;;;;;8.27;7.47;;;;;;;24.34;49.62;99756.31;4930951;28;20114;-87
2023/06/11 01:26:02;;;;;;;7.95;7.07;;;;;;;24.19;49.73;99762.13;4940066;28;20059;-86
2023/06/11 01:28:31;;;;;;;8.10;7.30;;;;;;;24.36;49.36;99761.53;4956001;28;20569;-87
2023/06/11 01:31:00;;;;;;;8.40;7.10;;;;;;;24.32;49.33;99758.44;4937374;28;20047;-86
2023/06/11 01:33:35;;;;;;;7.70;6.85;;;;;;;24.25;50.11;99763.13;4951384;28;20062;-87
2023/06/11 01:36:05;;;;;;;9.25;7.82;;;;;;;24.22;50.11;99760.84;4955342;28;20463;-87
2023/06/11 01:38:41;;;;;;;8.45;7.25;;;;;;;24.17;50.06;99758.84;4945794;28;20126;-86
2023/06/11 01:41:15;;;;;;;10.00;7.80;;;;;;;24.18;50.11;99762.38;4961649;28;20399;-86
2023/06/11 01:43:43;;;;;;;8.23;7.40;;;;;;;24.15;50.17;99763.66;4952767;28;20069;-88
2023/06/11 01:46:10;;;;;;;9.35;7.25;;;;;;;24.18;49.70;99765.09;4947236;28;20051;-86
2023/06/11 01:48:37;;;;;;;8.90;7.00;;;;;;;24.12;49.75;99765.97;4942831;28;20047;-87
2023/06/11 01:51:03;;;;;;;8.43;7.43;;;;;;;24.08;50.04;99767.50;4920240;28;20522;-86
2023/06/11 01:53:30;;;;;;;8.60;7.38;;;;;;;24.09;50.15;99777.28;4926313;28;20050;-87
2023/06/11 01:55:59;;;;;;;8.60;7.72;;;;;;;24.08;50.28;99767.50;4923823;28;20047;-87
2023/06/11 01:58:26;;;;;;;8.63;7.82;;;;;;;24.04;50.33;99773.38;4925418;28;20051;-86
2023/06/11 02:00:53;;;;;;;8.45;7.55;;;;;;;24.02;50.13;99770.06;4930348;28;20057;-88
2023/06/11 02:03:20;;;;;;;8.07;6.97;;;;;;;23.98;50.20;99770.75;4935514;28;20055;-86
2023/06/11 02:05:47;;;;;;;8.23;7.30;;;;;;;23.95;50.15;99769.31;4951980;28;20082;-88
2023/06/11 02:08:15;;;;;;;8.10;7.30;;;;;;;23.90;50.38;99777.28;4929234;28;20518;-86
2023/06/11 02:10:43;;;;;;;9.30;8.05;;;;;;;23.87;50.63;99771.50;4932584;28;20154;-87
2023/06/11 02:13:10;;;;;;;9.40;7.85;;;;;;;23.84;50.58;99775.47;4926509;28;20043;-87
2023/06/11 02:15:37;;;;;;;9.27;7.95;;;;;;;23.85;50.45;99771.69;4932819;28;20125;-87
2023/06/11 02:18:04;;;;;;;8.90;7.70;;;;;;;23.84;50.38;99764.63;4943293;28;20577;-86
2023/06/11 02:20:31;;;;;;;10.57;8.13;;;;;;;23.82;50.65;99766.75;4952268;28;20047;-86
2023/06/11 02:22:58;;;;;;;10.20;8.30;;;;;;;23.82;50.27;99772.16;4931017;28;20245;-86
2023/06/11 02:25:25;;;;;;;9.68;7.75;;;;;;;23.80;50.74;99771.53;4948602;28;20391;-87
2023/06/11 02:27:54;;;;;;;8.90;8.00;;;;;;;23.78;50.49;99773.66;4937563;28;20054;-87
2023/06/11 02:30:21;;;;;;;9.95;8.48;;;;;;;23.81;50.57;99775.91;4937427;28;20051;-85
2023/06/11 02:32:48;;;;;;;10.88;8.82;;;;;;;23.73;50.76;99789.75;4939183;28;20073;-85
2023/06/11 02:35:15;;;;;;;8.35;7.55;;;;;;;23.72;50.71;99780.81;4935849;28;20102;-86
2023/06/11 02:37:42;;;;;;;10.48;7.68;;;;;;;23.72;50.75;99791.66;4910886;28;20090;-85
2023/06/11 02:40:09;;;;;;;8.45;7.43;;;;;;;23.72;50.75;99790.78;4930406;28;20078;-86
2023/06/11 02:42:36;;;;;;;9.32;7.97;;;;;;;23.70;50.65;99795.59;4953706;28;20123;-85
2023/06/11 02:45:03;;;;;;;10.23;8.35;;;;;;;23.69;50.77;99800.19;4938211;28;20383;-85
2023/06/11 02:47:30;;;;;;;8.45;7.65;;;;;;;23.70;50.79;99798.31;4926825;28;20051;-86
2023/06/11 02:49:57;;;;;;;9.15;7.78;;;;;;;23.62;51.10;99789.41;4925340;28;20051;-87
2023/06/11 02:52:24;;;;;;;11.82;7.97;;;;;;;23.62;51.25;99794.81;4959198;28;20066;-87
2023/06/11 02:54:51;;;;;;;10.05;8.75;;;;;;;23.67;51.01;99813.13;4948445;28;20446;-88
2023/06/11 02:57:17;;;;;;;8.82;8.02;;;;;;;23.65;50.89;99809.00;4943429;28;20043;-87
2023/06/11 02:59:44;;;;;;;10.52;8.18;;;;;;;23.56;51.10;99814.69;4950659;28;20051;-86
2023/06/11 03:02:11;;;;;;;8.27;7.35;;;;;;;23.55;51.14;99813.03;4955189;28;20407;-87
2023/06/11 03:04:38;;;;;;;10.63;8.00;;;;;;;23.53;51.06;99809.69;4938485;28;20051;-86
2023/06/11 03:07:05;;;;;;;9.10;8.07;;;;;;;23.50;51.37;99810.13;4946305;28;20404;-87
2023/06/11 03:09:33;;;;;;;10.05;8.23;;;;;;;23.50;51.55;99807.44;4909868;28;20077;-88
2023/06/11 03:12:00;;;;;;;8.82;7.95;;;;;;;23.48;51.50;99812.25;4965842;28;20482;-87
2023/06/11 03:14:27;;;;;;;9.15;8.15;;;;;;;23.45;51.48;99818.09;4910033;28;20062;-87
2023/06/11 03:16:55;;;;;;;8.88;7.97;;;;;;;23.44;51.28;99818.34;4910828;28;20098;-87
2023/06/11 03:19:22;;;;;;;8.73;7.85;;;;;;;23.36;51.23;99806.72;4939138;28;20055;-86
2023/06/11 03:21:51;;;;;;;9.13;8.07;;;;;;;23.31;51.43;99811.97;4921791;28;20047;-87
2023/06/11 03:24:18;;;;;;;8.45;7.60;;;;;;;23.27;51.14;99812.63;4933699;28;20074;-86
2023/06/11 03:26:45;;;;;;;9.60;7.68;;;;;;;23.24;51.20;99802.22;4937713;28;20047;-86
2023/06/11 03:29:13;;;;;;;9.30;8.27;;;;;;;23.18;51.14;99804.75;4930765;28;20402;-87
2023/06/11 03:31:47;;;;;;;9.43;8.52;;;;;;;23.22;51.54;99804.31;4930735;28;20545;-87
2023/06/11 03:34:14;;;;;;;9.02;8.13;;;;;;;23.18;51.42;99806.66;4940122;28;20047;-87
2023/06/11 03:36:42;;;;;;;10.05;8.23;;;;;;;23.19;51.28;99808.31;4921832;28;20048;-86
2023/06/11 03:39:13;;;;;;;10.07;7.45;;;;;;;23.15;51.61;99807.91;4936736;28;20104;-86
2023/06/11 03:41:40;;;;;;;10.63;7.88;;;;;;;23.16;51.58;99814.16;4923751;28;20055;-87
2023/06/11 03:44:07;;;;;;;10.95;8.48;;;;;;;23.20;51.34;99812.66;4914545;28;20062;-87
2023/06/11 03:46:34;;;;;;;12.18;8.25;;;;;;;23.28;51.70;99812.41;4903071;28;20083;-86
2023/06/11 03:49:01;;;;;;;9.57;8.55;;;;;;;23.42;51.44;99813.13;4917053;28;20046;-86
2023/06/11 03:51:29;;;;;;;8.77;7.60;;;;;;;23.55;51.49;99823.84;4935847;28;20062;-86
2023/06/11 03:53:55;;;;;;;17.27;8.35;;;;;;;23.72;51.86;99817.91;4924947;28;20110;-87
2023/06/11 03:56:22;;;;;;;9.25;8.35;;;;;;;24.11;51.82;99835.69;4925446;28;20048;-86
2023/06/11 03:58:49;;;;;;;9.30;8.30;;;;;;;24.64;50.81;99837.03;4926801;28;20043;-86
2023/06/11 04:01:16;;;;;;;9.73;8.10;;;;;;;25.36;48.56;99836.25;4939269;28;20565;-87
2023/06/11 04:03:43;;;;;;;13.90;9.50;;;;;;;26.04;46.50;99826.78;4924954;28;20039;-86
2023/06/11 04:06:10;;;;;;;10.60;8.00;;;;;;;26.36;45.37;99822.63;4902516;28;20047;-87
2023/06/11 04:08:38;;;;;;;9.05;8.02;;;;;;;26.29;44.60;99824.63;4930591;28;20059;-86
2023/06/11 04:11:05;;;;;;;8.63;7.70;;;;;;;26.06;45.00;99824.66;4952977;28;20077;-88
2023/06/11 04:13:32;;;;;;;10.07;8.88;;;;;;;25.69;45.33;99828.38;4945466;28;20051;-88
2023/06/11 04:15:59;;;;;;;8.93;7.97;;;;;;;25.52;45.61;99832.88;4965154;28;20088;-88
2023/06/11 04:18:27;;;;;;;8.05;7.25;;;;;;;25.34;46.17;99837.34;4955915;28;20054;-85
2023/06/11 04:20:55;;;;;;;12.27;7.55;;;;;;;25.28;46.21;99834.72;4924383;28;20483;-86
2023/06/11 04:23:22;;;;;;;8.68;7.60;;;;;;;25.21;46.37;99842.13;4938211;28;20501;-86
2023/06/11 04:25:49;;;;;;;8.82;7.93;;;;;;;25.13;46.39;99838.63;4910009;28;20055;-86
2023/06/11 04:28:17;;;;;;;9.90;7.68;;;;;;;24.99;46.80;99839.91;4914559;28;20065;-87
2023/06/11 04:30:46;;;;;;;8.43;7.53;;;;;;;24.97;46.88;99841.19;4917166;28;20050;-86
2023/06/11 04:33:15;;;;;;;8.55;7.65;;;;;;;24.96;46.88;99845.81;4923210;28;20050;-87
2023/06/11 04:35:47;;;;;;;8.82;8.02;;;;;;;24.80;47.10;99839.09;4960732;28;20047;-87
2023/06/11 04:38:14;;;;;;;8.65;7.82;;;;;;;24.80;47.10;99838.28;4945569;28;20168;-86
2023/06/11 04:40:41;;;;;;;9.90;7.63;;;;;;;24.74;46.62;99831.06;4957568;28;20445;-86
2023/06/11 04:43:09;;;;;;;9.57;7.97;;;;;;;24.71;47.37;99837.78;4966397;28;20049;-86
2023/06/11 04:45:38;;;;;;;8.32;7.47;;;;;;;24.71;47.44;99839.66;4933586;28;20072;-86
2023/06/11 04:48:06;;;;;;;8.35;7.38;;;;;;;24.71;47.41;99845.91;4941907;28;20046;-86
2023/06/11 04:50:36;;;;;;;8.20;7.32;;;;;;;24.62;47.47;99831.81;4954266;28;20545;-86
2023/06/11 04:53:04;;;;;;;10.88;7.65;;;;;;;24.54;47.50;99834.00;4928853;28;20050;-87
2023/06/11 04:55:32;;;;;;;8.02;7.22;;;;;;;24.42;47.86;99845.56;4953510;28;20531;-86
2023/06/11 04:58:00;;;;;;;9.45;7.85;;;;;;;24.28;48.08;99838.66;4920335;28;20062;-86
2023/06/11 05:00:28;;;;;;;9.07;7.72;;;;;;;24.25;48.41;99836.41;4922312;28;20055;-87
2023/06/11 05:02:58;;;;;;;10.38;7.60;;;;;;;24.21;48.05;99832.47;4929174;28;20213;-86
2023/06/11 05:05:25;;;;;;;7.28;6.65;;;;;;;24.07;48.86;99836.34;4910382;28;20052;-86
2023/06/11 05:07:52;;;;;;;8.50;7.55;;;;;;;24.06;48.46;99832.81;4942030;28;20054;-88
2023/06/11 05:10:19;;;;;;;8.20;7.40;;;;;;;24.02;48.76;99828.91;4922681;28;20418;-87
2023/06/11 05:12:47;;;;;;;8.05;7.35;;;;;;;24.03;48.58;99839.53;4939385;28;20062;-85
2023/06/11 05:15:13;;;;;;;9.48;6.97;;;;;;;23.99;48.85;99834.75;4911920;28;20130;-86
2023/06/11 05:17:41;;;;;;;9.13;7.53;;;;;;;23.97;49.09;99832.28;4931377;28;20062;-86
2023/06/11 05:20:09;;;;;;;9.38;7.68;;;;;;;24.03;49.06;99847.66;4926804;28;20098;-86
2023/06/11 05:22:36;;;;;;;8.70;7.07;;;;;;;24.02;48.99;99839.78;4956429;28;20078;-86
2023/06/11 05:25:03;;;;;;;10.38;7.32;;;;;;;24.01;49.07;99841.63;4927055;28;20127;-86
2023/06/11 05:27:32;;;;;;;7.95;7.10;;;;;;;23.98;49.18;99833.94;4921109;28;20493;-87
2023/06/11 05:30:02;;;;;;;8.20;7.40;;;;;;;23.98;49.27;99841.25;4936750;28;20543;-87
2023/06/11 05:32:31;;;;;;;9.20;7.25;;;;;;;23.91;49.44;99840.47;4930353;28;20081;-87
2023/06/11 05:34:59;;;;;;;9.02;7.78;;;;;;;23.98;49.29;99855.63;4932418;28;20043;-86
2023/06/11 05:37:26;;;;;;;8.70;6.97;;;;;;;23.99;49.54;99853.75;4924406;28;20111;-87
2023/06/11 05:39:53;;;;;;;9.88;7.43;;;;;;;23.94;49.44;99861.72;4910385;28;20051;-86
2023/06/11 05:42:21;;;;;;;8.65;7.70;;;;;;;23.95;49.58;99845.25;4910193;28;20498;-87
2023/06/11 05:44:48;;;;;;;8.75;7.38;;;;;;;24.03;49.64;99852.25;4949878;28;20047;-86
2023/06/11 05:47:15;;;;;;;8.25;7.45;;;;;;;24.00;49.76;99847.28;4914192;28;20082;-87
2023/06/11 05:49:43;;;;;;;7.93;7.13;;;;;;;24.01;49.78;99847.06;4928734;28;20048;-87
2023/06/11 05:52:10;;;;;;;8.70;6.75;;;;;;;23.99;49.46;99845.63;4926235;28;20040;-87
2023/06/11 05:54:37;;;;;;;8.52;7.45;;;;;;;24.02;49.87;99850.63;4929863;28;20048;-87
2023/06/11 05:57:06;;;;;;;8.75;7.93;;;;;;;24.08;49.75;99855.13;4939273;28;20049;-87
2023/06/11 05:59:33;;;;;;;8.43;7.35;;;;;;;23.99;50.12;99860.03;4925918;28;20051;-86
2023/06/11 06:02:00;;;;;;;8.43;7.47;;;;;;;24.07;49.84;99863.50;4940051;28;20051;-87
2023/06/11 06:04:27;;;;;;;9.02;7.72;;;;;;;24.07;49.98;99855.34;4924304;28;20051;-87
2023/06/11 06:06:55;;;;;;;8.70;7.80;;;;;;;24.07;50.14;99858.06;4938142;28;20115;-86
2023/06/11 06:09:23;;;;;;;8.30;7.18;;;;;;;24.16;50.16;99864.88;4957934;28;20462;-87
2023/06/11 06:11:49;;;;;;;8.30;7.13;;;;;;;24.17;50.35;99864.66;4944248;28;20368;-88
2023/06/11 06:14:16;;;;;;;6.72;6.00;;;;;;;24.22;50.07;99866.66;4897479;28;20134;-86
2023/06/11 06:16:44;;;;;;;9.43;7.25;;;;;;;24.26;50.18;99867.91;4898147;28;20094;-85
2023/06/11 06:19:16;;;;;;;11.25;7.95;;;;;;;24.26;49.78;99863.28;4912851;28;20066;-87
2023/06/11 06:21:43;;;;;;;8.57;7.55;;;;;;;24.26;49.92;99865.19;4915203;28;20055;-87
2023/06/11 06:24:10;;;;;;;9.38;6.85;;;;;;;24.31;50.16;99865.34;4926580;28;20050;-86
2023/06/11 06:26:40;;;;;;;7.25;6.55;;;;;;;24.38;50.41;99876.13;4936842;28;20491;-87
2023/06/11 06:29:08;;;;;;;7.75;6.90;;;;;;;24.40;49.95;99868.56;4924316;28;20538;-86
2023/06/11 06:31:38;;;;;;;8.63;6.53;;;;;;;24.46;50.04;99879.41;4928090;28;20050;-86
2023/06/11 06:34:07;;;;;;;7.80;7.00;;;;;;;24.48;49.98;99874.59;4942175;28;20050;-86
2023/06/11 06:36:38;;;;;;;8.25;7.28;;;;;;;24.53;50.04;99871.19;4929678;28;21066;-87
2023/06/11 06:39:06;;;;;;;8.10;7.30;;;;;;;24.58;50.58;99879.50;4921572;28;20062;-87
2023/06/11 06:41:33;;;;;;;8.48;7.53;;;;;;;24.62;50.09;99877.13;4940072;28;20414;-86
2023/06/11 06:44:07;;;;;;;7.70;6.57;;;;;;;24.60;49.87;99874.66;4939225;28;20043;-87
2023/06/11 06:46:34;;;;;;;8.18;6.72;;;;;;;24.63;49.89;99871.50;4924237;28;20049;-87
2023/06/11 06:49:02;;;;;;;9.40;7.65;;;;;;;24.66;49.73;99878.34;4927681;28;20047;-87
2023/06/11 06:51:32;;;;;;;6.97;6.35;;;;;;;24.67;49.67;99875.41;4930553;28;20430;-87
2023/06/11 06:54:00;;;;;;;8.60;6.78;;;;;;;24.69;49.56;99867.03;4964226;28;20050;-86
2023/06/11 06:56:27;;;;;;;8.68;6.93;;;;;;;24.72;49.96;99866.56;4954274;28;20329;-87
2023/06/11 06:58:55;;;;;;;9.98;6.97;;;;;;;24.76;49.86;99865.06;4962376;28;20058;-87
2023/06/11 07:01:21;;;;;;;7.15;6.10;;;;;;;24.80;49.45;99876.28;4922886;28;20051;-87
2023/06/11 07:03:48;;;;;;;7.72;6.68;;;;;;;24.79;49.10;99867.31;4929641;28;20648;-87
2023/06/11 07:06:15;;;;;;;7.10;6.47;;;;;;;24.85;49.04;99876.44;4929128;28;20063;-87
2023/06/11 07:08:42;;;;;;;7.75;6.88;;;;;;;24.87;48.65;99875.16;4930060;28;20071;-86
2023/06/11 07:11:09;;;;;;;8.15;6.82;;;;;;;24.90;48.64;99871.16;4938446;28;20056;-87
2023/06/11 07:13:43;;;;;;;7.80;6.88;;;;;;;24.89;48.53;99877.66;4916913;28;20058;-86
2023/06/11 07:16:10;;;;;;;7.63;6.47;;;;;;;24.82;48.77;99876.91;4916295;28;20414;-87
2023/06/11 07:18:41;;;;;;;8.27;6.95;;;;;;;24.85;49.00;99879.97;4938260;28;20477;-87
2023/06/11 07:21:09;;;;;;;7.90;7.10;;;;;;;24.85;48.94;99876.44;4907645;28;20063;-87
2023/06/11 07:23:36;;;;;;;8.75;7.30;;;;;;;24.90;48.73;99869.25;4933911;28;20078;-87
2023/06/11 07:26:03;;;;;;;7.55;6.43;;;;;;;24.96;48.40;99872.97;4922589;28;20138;-88
2023/06/11 07:28:30;;;;;;;8.57;7.05;;;;;;;24.98;48.34;99872.72;4935760;28;20186;-86
2023/06/11 07:30:58;;;;;;;8.35;6.85;;;;;;;25.01;48.80;99864.09;4930439;28;20118;-87
2023/06/11 07:33:25;;;;;;;9.60;7.70;;;;;;;25.04;48.57;99878.06;4962060;28;20055;-87
2023/06/11 07:35:55;;;;;;;9.82;7.60;;;;;;;25.06;48.56;99870.53;4949382;28;20524;-87
2023/06/11 07:38:22;;;;;;;9.18;7.40;;;;;;;25.07;48.36;99874.06;4951108;28;20675;-87
2023/06/11 07:40:49;;;;;;;9.70;6.75;;;;;;;25.05;47.97;99870.75;4962043;28;20559;-87
2023/06/11 07:43:16;;;;;;;9.05;6.72;;;;;;;25.10;48.45;99882.59;4936454;28;20071;-87
2023/06/11 07:45:43;;;;;;;8.38;7.47;;;;;;;25.12;48.37;99882.38;4965350;28;20522;-87
2023/06/11 07:48:10;;;;;;;10.05;7.03;;;;;;;25.08;48.07;99875.72;4960437;28;20563;-87
2023/06/11 07:50:37;;;;;;;8.68;6.55;;;;;;;25.12;47.97;99879.66;4959541;28;20082;-87
2023/06/11 07:53:04;;;;;;;7.30;6.55;;;;;;;25.14;48.08;99882.97;4940973;28;20061;-87
2023/06/11 07:55:33;;;;;;;9.20;6.25;;;;;;;25.15;48.06;99878.34;4947169;28;20090;-87
2023/06/11 07:58:00;;;;;;;8.88;7.35;;;;;;;25.20;47.65;99889.41;4945394;28;21352;-87
2023/06/11 08:00:27;;;;;;;7.50;6.47;;;;;;;25.22;47.38;99887.28;4942244;28;20051;-86
2023/06/11 08:02:54;;;;;;;7.78;6.70;;;;;;;25.24;47.40;99882.41;4967170;28;20043;-87
2023/06/11 08:05:21;;;;;;;7.25;6.55;;;;;;;25.26;47.30;99883.03;4941317;28;20051;-86
2023/06/11 08:07:48;;;;;;;8.00;7.25;;;;;;;25.27;47.22;99888.25;4935860;28;20078;-86
2023/06/11 08:10:15;;;;;;;9.82;7.18;;;;;;;25.31;46.82;99883.97;4939699;28;20055;-86
2023/06/11 08:12:43;;;;;;;8.07;7.20;;;;;;;25.36;46.83;99877.03;4930731;28;20135;-86
2023/06/11 08:15:10;;;;;;;7.85;6.85;;;;;;;25.39;46.47;99885.56;4924009;28;20047;-86
2023/06/11 08:17:38;;;;;;;7.80;7.03;;;;;;;25.42;46.69;99884.28;4928210;28;20518;-87
2023/06/11 08:20:07;;;;;;;9.55;7.03;;;;;;;25.38;46.19;99870.31;4955816;28;20059;-86
2023/06/11 08:22:34;;;;;;;9.20;6.78;;;;;;;25.40;46.52;99873.63;4932134;28;20047;-87
2023/06/11 08:25:01;;;;;;;9.40;7.70;;;;;;;25.40;46.71;99876.34;4946020;28;20131;-86
2023/06/11 08:27:28;;;;;;;9.95;7.45;;;;;;;25.46;46.36;99885.47;4930564;28;20069;-86
2023/06/11 08:29:55;;;;;;;7.55;6.43;;;;;;;25.46;46.13;99880.84;4936815;28;20054;-88
2023/06/11 08:32:21;;;;;;;7.40;6.43;;;;;;;25.45;44.98;99879.19;4938715;28;20070;-87
2023/06/11 08:34:48;;;;;;;9.18;6.88;;;;;;;25.39;45.68;99874.69;4931018;28;20086;-86
2023/06/11 08:37:15;;;;;;;8.77;6.82;;;;;;;25.39;45.58;99866.53;4920485;28;20070;-87
2023/06/11 08:39:42;;;;;;;8.93;7.35;;;;;;;25.46;45.40;99867.25;4950279;28;20091;-87
2023/06/11 08:42:09;;;;;;;8.60;7.70;;;;;;;25.50;45.78;99867.63;4946233;28;20679;-87
2023/06/11 08:44:36;;;;;;;7.75;6.95;;;;;;;25.50;45.49;99865.75;4947494;28;20055;-86
2023/06/11 08:47:04;;;;;;;9.45;7.05;;;;;;;25.49;45.10;99853.22;4957672;28;20131;-87
2023/06/11 08:49:30;;;;;;;8.40;7.10;;;;;;;25.55;45.49;99857.72;4938232;28;20050;-86
2023/06/11 08:52:03;;;;;;;10.95;7.35;;;;;;;25.59;44.85;99858.06;4889039;28;20067;-88
2023/06/11 08:54:29;;;;;;;8.30;6.95;;;;;;;25.62;44.67;99859.47;4928986;28;20570;-87
2023/06/11 08:56:56;;;;;;;9.00;7.32;;;;;;;25.67;43.88;99859.59;4937613;28;20059;-87
2023/06/11 08:59:23;;;;;;;8.77;7.82;;;;;;;25.68;43.27;99853.94;4925316;28;20138;-87
2023/06/11 09:01:51;;;;;;;7.72;6.93;;;;;;;25.69;43.49;99855.59;4889125;28;20043;-87
2023/06/11 09:04:18;;;;;;;8.70;7.57;;;;;;;25.73;43.37;99854.06;4922413;28;20047;-87
2023/06/11 09:06:56;;;;;;;9.75;7.05;;;;;;;25.72;43.83;99846.97;4933329;28;20075;-87
2023/06/11 09:09:23;;;;;;;7.57;6.78;;;;;;;25.74;42.99;99830.41;4934073;28;20066;-88
2023/06/11 09:11:51;;;;;;;7.72;6.35;;;;;;;25.78;42.67;99856.91;4916173;28;20051;-86
2023/06/11 09:14:17;;;;;;;9.05;6.90;;;;;;;25.81;42.13;99852.06;4918189;28;20684;-87
2023/06/11 09:16:46;;;;;;;9.90;6.82;;;;;;;25.78;42.20;99847.94;4926757;28;20422;-87
2023/06/11 09:19:20;;;;;;;9.57;6.57;;;;;;;25.75;41.75;99848.41;4930077;28;20054;-86
2023/06/11 09:21:55;;;;;;;8.93;6.53;;;;;;;25.81;41.43;99850.19;4943339;28;20055;-87
2023/06/11 09:24:23;;;;;;;6.47;5.88;;;;;;;25.85;41.62;99853.28;4938742;28;20051;-87
2023/06/11 09:26:54;;;;;;;8.68;6.35;;;;;;;25.88;41.17;99833.78;4938760;28;20039;-87
2023/06/11 09:29:23;;;;;;;9.88;7.07;;;;;;;25.92;40.59;99829.50;4932113;28;20182;-86
2023/06/11 09:32:04;;;;;;;10.20;6.50;;;;;;;25.86;40.36;99835.91;4925855;28;20044;-87
2023/06/11 09:34:41;;;;;;;8.25;5.82;;;;;;;25.94;40.46;99840.97;4918192;28;20049;-87
2023/06/11 09:37:11;;;;;;;7.82;6.00;;;;;;;25.94;40.69;99830.09;4924181;28;20769;-87
2023/06/11 09:39:41;;;;;;;7.57;6.00;;;;;;;25.97;40.32;99854.09;4919498;28;20082;-87
2023/06/11 09:42:26;;;;;;;10.65;5.72;;;;;;;25.81;37.14;99841.19;4941576;28;20454;-87
2023/06/11 09:44:58;;;;;;;9.73;5.80;;;;;;;25.87;39.01;99843.81;4944285;28;20049;-87
2023/06/11 09:47:27;;;;;;;9.20;5.32;;;;;;;25.89;38.38;99840.88;4919905;28;20026;-88
2023/06/11 09:49:55;;;;;;;7.55;5.78;;;;;;;25.93;38.85;99839.34;4913205;28;20450;-87
2023/06/11 09:52:22;;;;;;;7.07;5.97;;;;;;;25.95;38.56;99829.88;4932458;28;20096;-86
2023/06/11 09:54:50;;;;;;;7.90;5.78;;;;;;;26.00;38.99;99837.31;4925345;28;20186;-87
2023/06/11 09:57:17;;;;;;;7.05;6.25;;;;;;;25.97;38.50;99838.59;4926547;28;20059;-88
2023/06/11 09:59:45;;;;;;;9.57;5.97;;;;;;;26.01;38.56;99825.38;4916022;28;20087;-87
2023/06/11 10:02:12;;;;;;;8.25;5.97;;;;;;;26.05;38.39;99820.28;4934432;28;20047;-87
2023/06/11 10:04:39;;;;;;;7.78;5.60;;;;;;;26.04;38.78;99824.06;4927139;28;20054;-87
2023/06/11 10:07:06;;;;;;;9.73;6.20;;;;;;;26.07;38.27;99827.13;4940899;28;20047;-86
2023/06/11 10:09:33;;;;;;;6.40;5.50;;;;;;;26.11;37.81;99822.88;4941952;28;20051;-87
2023/06/11 10:12:00;;;;;;;9.80;6.15;;;;;;;26.11;36.90;99831.03;4934106;28;20042;-87
2023/06/11 10:14:29;;;;;;;7.03;5.68;;;;;;;26.07;37.29;99843.47;4945045;28;20042;-86
2023/06/11 10:16:57;;;;;;;7.53;5.95;;;;;;;26.09;36.94;99854.13;4939909;28;20067;-88
2023/06/11 10:19:34;;;;;;;7.00;6.30;;;;;;;26.01;34.67;99843.59;4910578;28;20047;-87
2023/06/11 10:22:01;;;;;;;8.15;5.70;;;;;;;26.08;36.25;99836.13;4930630;28;20122;-86
2023/06/11 10:24:28;;;;;;;8.13;6.18;;;;;;;26.09;36.18;99837.78;4930773;28;20526;-86
2023/06/11 10:27:12;;;;;;;6.70;5.47;;;;;;;26.02;35.06;99820.75;4917925;28;20048;-87
2023/06/11 10:29:50;;;;;;;8.75;5.82;;;;;;;26.15;34.68;99834.09;4922852;28;20503;-87
2023/06/11 10:32:18;;;;;;;8.73;5.68;;;;;;;26.08;34.57;99836.13;4957199;28;20075;-88
2023/06/11 10:34:53;;;;;;;5.95;5.03;;;;;;;26.09;35.94;99832.34;4958782;28;20038;-87
2023/06/11 10:37:31;;;;;;;7.60;6.35;;;;;;;26.11;35.04;99825.59;4935669;28;20044;-87
2023/06/11 10:39:58;;;;;;;14.18;6.35;;;;;;;26.19;35.41;99822.50;4936899;28;20062;-87
2023/06/11 10:42:27;;;;;;;8.05;5.78;;;;;;;26.18;35.74;99818.16;4935209;28;20404;-87
2023/06/11 10:44:58;;;;;;;7.45;5.72;;;;;;;26.18;36.26;99820.88;4894494;28;20350;-87
2023/06/11 10:47:27;;;;;;;6.70;5.82;;;;;;;26.24;35.90;99821.81;4902924;28;20494;-87
2023/06/11 10:50:15;;;;;;;10.27;5.80;;;;;;;26.20;35.69;99834.22;4925740;28;20051;-87
2023/06/11 10:52:55;;;;;;;6.72;5.65;;;;;;;26.25;35.95;99838.94;4934733;28;20547;-87
2023/06/11 10:55:23;;;;;;;5.90;5.32;;;;;;;26.33;35.62;99833.13;4894985;28;20459;-87
2023/06/11 10:57:53;;;;;;;8.73;6.00;;;;;;;26.33;34.98;99828.53;4925464;28;20048;-87
2023/06/11 11:00:20;;;;;;;8.82;6.00;;;;;;;26.36;35.40;99825.34;4922914;28;20527;-87
2023/06/11 11:02:47;;;;;;;9.15;5.82;;;;;;;26.40;34.37;99823.78;4941686;28;20589;-87
2023/06/11 11:05:14;;;;;;;6.63;5.60;;;;;;;26.37;34.76;99816.09;4950748;28;20053;-87
2023/06/11 11:07:44;;;;;;;6.57;5.10;;;;;;;26.43;34.58;99830.63;4972405;28;20330;-87
2023/06/11 11:10:13;;;;;;;8.25;5.40;;;;;;;26.41;34.17;99824.63;4951788;28;21702;-86
2023/06/11 11:12:44;;;;;;;7.00;5.22;;;;;;;26.42;34.31;99820.81;4961129;28;20051;-86
2023/06/11 11:15:13;;;;;;;20.25;5.93;;;;;;;26.40;34.06;99807.44;4941680;28;20051;-86
2023/06/11 11:17:42;;;;;;;7.57;5.03;;;;;;;26.40;34.17;99804.72;4945912;28;20054;-88
2023/06/11 11:20:10;;;;;;;5.97;5.00;;;;;;;26.39;33.29;99815.88;4940411;28;20354;-86
2023/06/11 11:22:37;;;;;;;5.38;4.88;;;;;;;26.42;32.48;99812.66;4919406;28;20063;-86
2023/06/11 11:25:06;;;;;;;6.28;5.68;;;;;;;26.38;31.86;99814.19;4930289;28;20058;-87
2023/06/11 11:27:34;;;;;;;8.77;4.80;;;;;;;26.41;31.23;99830.06;4934182;28;20171;-86
2023/06/11 11:30:03;;;;;;;7.00;5.43;;;;;;;26.37;31.46;99826.16;4909505;28;20043;-86
2023/06/11 11:32:33;;;;;;;8.25;5.50;;;;;;;26.37;31.50;99826.16;4909043;28;20047;-85
2023/06/11 11:35:02;;;;;;;9.05;5.20;;;;;;;26.44;31.26;99826.03;4936076;28;20059;-87
2023/06/11 11:37:30;;;;;;;7.10;5.00;;;;;;;26.42;31.75;99815.38;4928568;28;20090;-85